Time;durP1;ratioP1;P1;durP2;ratioP2;P2;SDS_P1;SDS_P2;PMS_P1;PMS_P2;Temp;Humidity;BMP_temperature;BMP_pressure;BME280_temperature;BME280_humidity;BME280_pressure;Samples;Min_cycle;Max_cycle;Signal;HPM_P1;HPM_P2
2022/07/29 00:03:34;;;;;;;3.63;3.13;;;25.60;57.00;;;;;;10071860;28;20028;-65
2022/07/29 00:08:25;;;;;;;4.30;3.10;;;25.50;57.40;;;;;;10060866;28;20029;-65
2022/07/29 00:13:16;;;;;;;3.85;2.80;;;25.40;57.50;;;;;;10052257;28;20069;-66
2022/07/29 00:18:07;;;;;;;3.85;2.80;;;25.40;57.80;;;;;;10064697;28;20049;-65
2022/07/29 00:22:58;;;;;;;4.10;2.70;;;25.30;57.80;;;;;;10059957;28;20339;-65
2022/07/29 00:27:48;;;;;;;3.20;2.88;;;25.30;58.00;;;;;;10062975;28;20076;-63
2022/07/29 00:32:39;;;;;;;5.57;3.10;;;25.50;57.80;;;;;;10065226;28;20217;-64
2022/07/29 00:37:30;;;;;;;4.68;2.85;;;25.40;58.00;;;;;;10064080;28;20056;-65
2022/07/29 00:42:20;;;;;;;3.92;2.85;;;25.30;58.10;;;;;;10072343;28;20349;-64
2022/07/29 00:47:12;;;;;;;6.07;3.00;;;25.30;58.20;;;;;;10062212;28;20037;-66
2022/07/29 00:52:04;;;;;;;5.70;3.13;;;25.20;58.40;;;;;;10071882;28;20340;-64
2022/07/29 00:56:58;;;;;;;4.22;2.88;;;25.20;58.40;;;;;;10073120;28;20037;-65
2022/07/29 01:01:48;;;;;;;4.03;3.28;;;25.10;58.40;;;;;;10063660;28;20029;-65
2022/07/29 01:06:39;;;;;;;4.25;2.80;;;25.00;58.60;;;;;;10051446;28;20045;-64
2022/07/29 01:11:30;;;;;;;4.50;2.95;;;24.70;59.10;;;;;;10059144;28;20120;-64
2022/07/29 01:16:49;;;;;;;7.13;3.10;;;24.80;59.20;;;;;;10060429;28;20046;-64
2022/07/29 01:22:02;;;;;;;6.30;2.80;;;24.80;59.60;;;;;;10045710;28;20064;-65
2022/07/29 01:27:40;;;;;;;4.93;3.10;;;24.70;59.90;;;;;;10052013;28;20096;-65
2022/07/29 01:32:35;;;;;;;4.93;3.72;;;24.60;60.20;;;;;;10058016;28;20021;-64
2022/07/29 01:37:38;;;;;;;6.82;3.00;;;24.60;60.10;;;;;;10055184;28;20025;-66
2022/07/29 01:42:35;;;;;;;4.43;3.58;;;24.30;60.70;;;;;;10059034;28;20312;-64
2022/07/29 01:47:32;;;;;;;4.18;3.58;;;24.30;61.20;;;;;;10062825;28;20099;-64
2022/07/29 01:52:33;;;;;;;3.40;3.10;;;24.20;61.70;;;;;;10074869;28;20025;-65
2022/07/29 01:57:29;;;;;;;5.25;3.80;;;24.00;62.20;;;;;;10061033;28;20029;-66
2022/07/29 02:02:21;;;;;;;3.63;3.28;;;23.90;62.60;;;;;;10068412;28;20021;-65
2022/07/29 02:07:20;;;;;;;6.25;3.85;;;23.90;62.90;;;;;;10065801;28;20033;-64
2022/07/29 02:12:13;;;;;;;6.15;3.67;;;23.80;63.30;;;;;;10056115;28;20054;-64
2022/07/29 02:17:04;;;;;;;3.53;3.13;;;23.90;63.50;;;;;;10049464;28;20021;-65
2022/07/29 02:21:57;;;;;;;7.07;3.45;;;23.80;63.90;;;;;;10065711;28;20199;-65
2022/07/29 02:26:51;;;;;;;5.50;4.35;;;23.80;64.10;;;;;;10053039;28;20068;-69
2022/07/29 02:31:44;;;;;;;6.00;4.07;;;23.80;64.80;;;;;;10056267;28;20048;-64
2022/07/29 02:36:36;;;;;;;4.18;3.72;;;23.70;65.00;;;;;;10066343;28;20028;-64
2022/07/29 02:41:40;;;;;;;5.00;4.40;;;23.60;65.70;;;;;;10058951;28;20030;-64
2022/07/29 02:46:34;;;;;;;4.72;4.22;;;23.50;66.40;;;;;;10065674;28;20037;-66
2022/07/29 02:51:53;;;;;;;5.18;3.55;;;23.40;66.90;;;;;;10057902;28;20022;-67
2022/07/29 02:56:46;;;;;;;4.47;3.30;;;23.50;67.40;;;;;;10051913;28;20294;-65
2022/07/29 03:01:43;;;;;;;5.70;3.75;;;23.50;67.30;;;;;;10054917;28;20058;-65
2022/07/29 03:06:35;;;;;;;5.68;3.90;;;23.50;67.60;;;;;;10069143;28;20122;-65
2022/07/29 03:11:26;;;;;;;4.82;4.30;;;23.50;67.60;;;;;;10062752;28;20137;-65
2022/07/29 03:16:19;;;;;;;7.93;3.90;;;23.50;67.90;;;;;;10051307;28;20030;-65
2022/07/29 03:21:10;;;;;;;8.63;4.70;;;23.40;68.20;;;;;;10042845;28;20045;-65
2022/07/29 03:26:01;;;;;;;5.65;4.40;;;23.40;68.20;;;;;;10052669;28;20061;-65
2022/07/29 03:30:51;;;;;;;5.20;4.60;;;23.30;68.80;;;;;;10052430;28;20060;-64
2022/07/29 03:35:42;;;;;;;5.60;3.75;;;23.20;69.30;;;;;;10065324;28;20041;-64
2022/07/29 03:40:48;;;;;;;7.90;4.72;;;23.20;69.60;;;;;;10042185;28;20037;-64
2022/07/29 03:45:42;;;;;;;7.70;4.80;;;23.20;70.00;;;;;;10049354;28;20036;-64
2022/07/29 03:50:34;;;;;;;5.50;4.07;;;23.30;70.00;;;;;;10077060;28;20026;-65
2022/07/29 03:55:26;;;;;;;5.90;4.30;;;23.30;70.30;;;;;;10056844;28;20018;-65
2022/07/29 04:00:17;;;;;;;5.88;4.75;;;23.20;70.60;;;;;;10055148;28;20033;-64
2022/07/29 04:05:12;;;;;;;5.95;4.25;;;23.30;70.90;;;;;;10059202;28;20369;-67
2022/07/29 04:10:03;;;;;;;6.22;4.70;;;23.30;71.20;;;;;;10074472;28;20277;-70
2022/07/29 04:14:54;;;;;;;4.35;3.95;;;23.20;71.60;;;;;;10061925;28;20061;-65
2022/07/29 04:19:45;;;;;;;5.72;3.72;;;23.20;71.90;;;;;;10081879;28;20037;-65
2022/07/29 04:24:35;;;;;;;5.55;3.55;;;23.00;72.30;;;;;;10072285;28;20224;-65
2022/07/29 04:29:27;;;;;;;4.50;4.07;;;22.90;72.70;;;;;;10067854;28;20092;-67
2022/07/29 04:34:18;;;;;;;4.78;4.10;;;22.90;72.50;;;;;;10064243;28;20037;-68
2022/07/29 04:39:09;;;;;;;6.32;4.20;;;23.00;72.30;;;;;;10067645;28;20045;-64
2022/07/29 04:44:04;;;;;;;5.25;4.03;;;23.00;72.30;;;;;;10066262;28;20343;-66
2022/07/29 04:48:55;;;;;;;8.40;4.03;;;23.00;72.50;;;;;;10062370;28;20030;-69
2022/07/29 04:53:46;;;;;;;6.03;4.05;;;23.00;72.50;;;;;;10065634;28;20029;-65
2022/07/29 04:58:37;;;;;;;5.10;3.90;;;23.00;72.70;;;;;;10066488;28;20259;-69
2022/07/29 05:03:27;;;;;;;8.60;4.07;;;23.10;72.80;;;;;;10073334;28;20124;-67
2022/07/29 05:08:18;;;;;;;5.30;3.97;;;23.20;72.60;;;;;;10075725;28;20327;-67
2022/07/29 05:13:09;;;;;;;5.30;3.92;;;23.40;72.40;;;;;;10058774;28;20063;-67
2022/07/29 05:18:00;;;;;;;6.00;3.80;;;23.50;72.00;;;;;;10064527;28;20071;-64
2022/07/29 05:22:50;;;;;;;5.88;3.78;;;23.60;71.80;;;;;;10040466;28;20029;-65
2022/07/29 05:27:41;;;;;;;5.43;4.20;;;23.80;71.70;;;;;;10061310;28;20097;-64
2022/07/29 05:32:32;;;;;;;5.90;4.18;;;24.00;71.40;;;;;;10055132;28;20047;-72
2022/07/29 05:37:22;;;;;;;4.03;3.53;;;24.00;71.20;;;;;;10067666;28;20021;-65
2022/07/29 05:42:13;;;;;;;3.35;2.65;;;24.10;70.90;;;;;;10057785;28;20022;-70
2022/07/29 05:47:04;;;;;;;4.57;3.17;;;24.30;70.20;;;;;;10056186;28;20045;-64
2022/07/29 05:51:54;;;;;;;4.18;2.88;;;24.50;69.60;;;;;;10064301;28;20294;-65
2022/07/29 05:56:45;;;;;;;4.25;2.85;;;24.60;69.30;;;;;;10072820;28;20224;-66
2022/07/29 06:01:39;;;;;;;5.50;3.42;;;24.90;68.40;;;;;;10064921;28;20025;-65
2022/07/29 06:06:29;;;;;;;3.58;2.90;;;25.00;68.00;;;;;;10067501;28;20049;-65
2022/07/29 06:11:20;;;;;;;4.35;3.38;;;25.10;67.40;;;;;;10068666;28;20475;-66
2022/07/29 06:16:10;;;;;;;3.88;2.70;;;25.10;67.30;;;;;;10050586;28;20187;-65
2022/07/29 06:21:06;;;;;;;5.13;3.28;;;25.20;66.70;;;;;;10060272;28;20118;-66
2022/07/29 06:25:57;;;;;;;5.63;2.83;;;25.20;66.30;;;;;;10050091;28;20036;-66
2022/07/29 06:30:48;;;;;;;7.43;3.50;;;25.20;66.40;;;;;;10050344;28;20197;-65
2022/07/29 06:35:39;;;;;;;4.80;3.42;;;25.30;66.20;;;;;;10057270;28;20271;-69
2022/07/29 06:45:40;;;;;;;5.68;3.15;;;25.20;66.40;;;;;;10049580;28;20029;-66
2022/07/29 06:50:31;;;;;;;3.55;2.72;;;25.30;66.30;;;;;;10056737;28;20033;-65
2022/07/29 06:55:22;;;;;;;4.85;2.90;;;25.50;65.90;;;;;;10053512;28;20422;-66
2022/07/29 07:00:13;;;;;;;4.20;2.88;;;25.60;65.90;;;;;;10060663;28;20030;-65
2022/07/29 07:05:07;;;;;;;7.07;3.40;;;25.70;65.60;;;;;;10069279;28;20131;-69
2022/07/29 07:09:58;;;;;;;17.38;3.42;;;25.40;65.60;;;;;;10056915;28;20288;-68
2022/07/29 07:14:48;;;;;;;7.07;3.72;;;25.20;65.70;;;;;;10058669;28;20037;-68
2022/07/29 07:19:39;;;;;;;7.60;4.13;;;25.00;66.00;;;;;;10053364;28;20030;-70
2022/07/29 07:24:30;;;;;;;10.75;5.20;;;25.00;65.90;;;;;;10067493;28;20025;-66
2022/07/29 07:29:24;;;;;;;5.88;3.88;;;25.30;65.90;;;;;;10054368;28;20025;-71
2022/07/29 07:34:15;;;;;;;4.53;3.60;;;25.60;65.60;;;;;;10067328;28;20125;-68
2022/07/29 07:39:05;;;;;;;5.00;3.13;;;25.40;65.80;;;;;;10044032;28;20065;-75
2022/07/29 07:43:56;;;;;;;6.82;2.75;;;25.80;65.70;;;;;;10063682;28;20132;-71
2022/07/29 07:48:47;;;;;;;5.15;2.38;;;25.80;65.50;;;;;;10059957;28;20033;-75
2022/07/29 07:53:37;;;;;;;4.07;2.75;;;25.80;65.40;;;;;;10059107;28;20077;-74
2022/07/29 07:58:28;;;;;;;4.13;3.25;;;25.90;65.30;;;;;;10060244;28;20056;-75
2022/07/29 08:03:18;;;;;;;14.90;3.33;;;26.00;65.30;;;;;;10072179;28;20081;-73
2022/07/29 08:08:09;;;;;;;3.70;2.50;;;26.00;65.20;;;;;;10059630;28;20042;-78
2022/07/29 08:13:05;;;;;;;4.18;2.83;;;25.90;65.20;;;;;;10076351;28;20046;-77
2022/07/29 08:17:55;;;;;;;4.93;2.78;;;25.80;65.30;;;;;;10065499;28;20098;-74
2022/07/29 08:22:46;;;;;;;4.53;2.60;;;25.90;65.20;;;;;;10050647;28;20495;-67
2022/07/29 08:27:37;;;;;;;4.30;3.20;;;26.00;64.90;;;;;;10042056;28;20500;-71
2022/07/29 08:32:28;;;;;;;7.60;2.70;;;26.10;64.60;;;;;;10044573;28;20443;-70
2022/07/29 08:37:25;;;;;;;5.95;2.85;;;26.10;64.60;;;;;;10064111;28;20014;-71
2022/07/29 08:42:16;;;;;;;3.78;2.40;;;26.10;64.40;;;;;;10049688;28;20044;-71
2022/07/29 08:47:07;;;;;;;5.85;2.17;;;26.20;64.00;;;;;;10051973;28;20679;-71
2022/07/29 08:51:59;;;;;;;4.85;2.50;;;26.60;63.20;;;;;;10057915;28;20395;-71
2022/07/29 08:56:54;;;;;;;3.65;2.70;;;26.80;62.40;;;;;;10068770;28;20026;-70
2022/07/29 09:01:50;;;;;;;3.05;2.47;;;26.60;62.30;;;;;;10064405;28;20024;-71
2022/07/29 09:06:45;;;;;;;6.50;2.53;;;26.60;62.10;;;;;;10054835;28;20308;-68
2022/07/29 09:11:36;;;;;;;4.38;2.80;;;26.60;61.80;;;;;;10051483;28;20943;-77
2022/07/29 09:16:48;;;;;;;2.80;2.15;;;26.60;61.40;;;;;;10053392;28;20057;-72
2022/07/29 09:21:59;;;;;;;4.40;2.55;;;26.90;60.50;;;;;;10069644;28;20048;-73
2022/07/29 09:27:06;;;;;;;5.40;2.90;;;27.00;60.50;;;;;;10067332;28;20165;-75
2022/07/29 09:31:57;;;;;;;5.00;2.67;;;27.20;60.10;;;;;;10071864;28;20036;-71
2022/07/29 09:36:50;;;;;;;4.82;3.03;;;27.40;59.80;;;;;;10062935;28;20362;-71
2022/07/29 09:41:49;;;;;;;6.10;3.35;;;27.30;59.70;;;;;;10055285;28;20392;-71
2022/07/29 09:46:41;;;;;;;3.63;2.42;;;27.20;59.50;;;;;;10065858;28;20056;-69
2022/07/29 09:51:40;;;;;;;3.58;2.38;;;27.30;59.40;;;;;;10062092;28;20530;-69
2022/07/29 09:56:43;;;;;;;5.95;3.80;;;27.70;58.90;;;;;;10068155;28;20025;-70
2022/07/29 10:01:35;;;;;;;4.80;2.93;;;28.10;58.40;;;;;;10055657;28;20051;-70
2022/07/29 10:06:26;;;;;;;4.60;2.90;;;28.30;58.30;;;;;;10087491;28;20295;-70
2022/07/29 10:11:18;;;;;;;5.13;2.67;;;28.10;58.20;;;;;;10059624;28;20328;-71
2022/07/29 10:16:10;;;;;;;4.15;2.50;;;28.30;57.90;;;;;;10060298;28;20486;-72
2022/07/29 10:21:01;;;;;;;5.70;2.80;;;28.30;57.60;;;;;;10067716;28;20057;-71
2022/07/29 10:25:56;;;;;;;3.85;2.13;;;28.60;57.00;;;;;;10067778;28;20224;-70
2022/07/29 10:30:53;;;;;;;3.38;1.98;;;28.80;56.10;;;;;;10074637;28;20141;-72
2022/07/29 10:35:53;;;;;;;4.32;2.03;;;29.10;55.50;;;;;;10049524;28;20040;-73
2022/07/29 10:41:29;;;;;;;6.55;3.10;;;29.50;54.70;;;;;;10061507;28;20202;-67
2022/07/29 10:46:23;;;;;;;5.95;2.38;;;29.60;54.10;;;;;;10061482;28;20042;-68
2022/07/29 10:51:18;;;;;;;3.38;1.77;;;29.70;54.40;;;;;;10065501;28;20038;-72
2022/07/29 10:56:27;;;;;;;3.80;1.67;;;29.60;54.00;;;;;;10061245;28;20220;-69
2022/07/29 11:01:31;;;;;;;6.43;1.73;;;29.50;53.10;;;;;;10065181;28;20029;-63
2022/07/29 11:06:21;;;;;;;;;;;29.50;53.30;;;;;;10071078;28;20075;-69
2022/07/29 11:11:24;;;;;;;2.30;2.08;;;29.60;53.30;;;;;;10064667;28;20116;-69
2022/07/29 11:16:16;;;;;;;3.77;1.73;;;29.50;52.90;;;;;;10065433;28;20049;-72
2022/07/29 11:21:36;;;;;;;3.65;1.95;;;29.40;53.50;;;;;;10057259;28;20408;-69
2022/07/29 11:26:27;;;;;;;2.55;1.38;;;29.50;52.30;;;;;;10060052;28;20049;-63
2022/07/29 11:31:41;;;;;;;3.03;1.90;;;29.40;52.60;;;;;;10063590;28;20025;-65
2022/07/29 11:36:32;;;;;;;5.35;2.38;;;29.70;52.00;;;;;;10074747;28;20052;-65
2022/07/29 11:41:24;;;;;;;2.45;1.70;;;29.60;52.30;;;;;;10067325;28;20108;-67
2022/07/29 11:46:16;;;;;;;4.05;1.95;;;29.50;52.20;;;;;;10073156;28;20017;-66
2022/07/29 11:51:11;;;;;;;5.22;1.77;;;29.40;52.10;;;;;;10070060;28;20479;-67
2022/07/29 11:56:03;;;;;;;2.92;1.70;;;29.10;52.30;;;;;;10071640;28;20032;-70
2022/07/29 12:00:55;;;;;;;5.28;2.55;;;29.10;52.20;;;;;;10073291;28;20045;-66
2022/07/29 12:05:45;;;;;;;5.38;2.47;;;29.20;52.10;;;;;;10074914;28;20088;-69
2022/07/29 12:10:37;;;;;;;4.45;2.58;;;29.20;52.20;;;;;;10078820;28;20177;-66
2022/07/29 12:15:27;;;;;;;2.90;2.03;;;29.40;52.30;;;;;;10071548;28;20462;-68
2022/07/29 12:20:29;;;;;;;10.85;2.45;;;29.50;52.40;;;;;;10059875;28;20040;-66
2022/07/29 12:25:32;;;;;;;4.95;2.25;;;29.50;52.50;;;;;;10057874;28;20024;-69
2022/07/29 12:30:33;;;;;;;5.63;2.05;;;29.50;52.90;;;;;;10050694;28;20078;-67
2022/07/29 12:35:24;;;;;;;3.22;2.47;;;29.50;53.10;;;;;;10035374;28;21159;-67
2022/07/29 12:40:16;;;;;;;8.50;4.07;;;29.90;53.10;;;;;;10035943;28;20112;-66
2022/07/29 12:45:07;;;;;;;5.13;2.53;;;30.20;53.20;;;;;;10047826;28;20041;-67
2022/07/29 12:50:14;;;;;;;2.55;2.08;;;30.40;53.30;;;;;;10038188;28;20391;-66
2022/07/29 12:55:05;;;;;;;3.47;2.42;;;30.60;53.40;;;;;;10057530;28;20079;-70
2022/07/29 13:00:07;;;;;;;3.47;2.10;;;30.40;53.70;;;;;;10045972;28;20034;-64
2022/07/29 13:05:01;;;;;;;3.90;2.70;;;30.40;53.70;;;;;;10052088;28;20021;-73
2022/07/29 13:09:51;;;;;;;3.72;2.03;;;30.20;53.50;;;;;;10063884;28;20061;-69
2022/07/29 13:14:47;;;;;;;2.45;2.25;;;30.30;54.30;;;;;;10054804;28;20046;-70
2022/07/29 13:19:42;;;;;;;5.50;2.30;;;30.70;53.20;;;;;;10057170;28;20116;-70
2022/07/29 13:24:34;;;;;;;4.22;2.33;;;31.10;53.00;;;;;;10057620;28;20029;-70
2022/07/29 13:29:26;;;;;;;4.53;2.42;;;30.90;52.80;;;;;;10054739;28;20029;-71
2022/07/29 13:34:18;;;;;;;3.50;2.03;;;31.00;52.70;;;;;;10053828;28;20052;-70
2022/07/29 13:39:11;;;;;;;3.85;2.22;;;31.30;52.40;;;;;;10054544;28;20048;-72
2022/07/29 13:44:01;;;;;;;2.75;2.15;;;31.70;51.80;;;;;;10053184;28;20021;-71
2022/07/29 13:48:52;;;;;;;5.65;2.58;;;31.80;51.40;;;;;;10055011;28;20448;-73
2022/07/29 13:53:42;;;;;;;2.97;2.03;;;32.40;51.30;;;;;;10054646;28;20108;-66
2022/07/29 13:58:34;;;;;;;2.85;1.83;;;32.20;50.90;;;;;;10039868;28;20026;-71
2022/07/29 14:03:25;;;;;;;2.95;1.85;;;31.80;51.10;;;;;;10035094;28;20021;-65
2022/07/29 14:08:16;;;;;;;2.25;1.70;;;31.90;51.00;;;;;;10050970;28;20030;-70
2022/07/29 14:13:07;;;;;;;2.95;1.77;;;31.90;50.40;;;;;;10053853;28;20056;-72
2022/07/29 14:17:57;;;;;;;3.60;1.63;;;32.60;49.90;;;;;;10036738;28;20026;-69
2022/07/29 14:22:48;;;;;;;2.03;1.58;;;33.30;49.00;;;;;;10045745;28;20073;-68
2022/07/29 14:27:39;;;;;;;3.08;1.73;;;33.90;47.80;;;;;;10039679;28;20048;-67
2022/07/29 14:32:29;;;;;;;2.50;2.13;;;33.60;47.60;;;;;;10040493;28;20229;-68
2022/07/29 14:37:20;;;;;;;2.17;1.40;;;33.00;47.40;;;;;;10043982;28;20029;-68
2022/07/29 14:42:11;;;;;;;2.20;1.48;;;32.80;47.40;;;;;;10039770;28;20120;-69
2022/07/29 14:47:02;;;;;;;2.47;1.73;;;33.30;46.90;;;;;;10047079;28;20052;-68
2022/07/29 14:51:52;;;;;;;1.65;1.38;;;34.00;46.10;;;;;;10036200;28;20030;-71
2022/07/29 14:56:43;;;;;;;1.95;1.30;;;33.50;46.50;;;;;;10044409;28;20032;-71
2022/07/29 15:01:34;;;;;;;3.53;1.30;;;33.50;45.30;;;;;;10039049;28;20040;-71
2022/07/29 15:06:25;;;;;;;1.65;1.17;;;33.40;45.80;;;;;;10049296;28;20033;-70
2022/07/29 15:11:16;;;;;;;3.53;1.42;;;32.90;45.10;;;;;;10050607;28;20539;-70
2022/07/29 15:16:06;;;;;;;1.42;1.33;;;32.50;45.50;;;;;;10042573;28;20033;-71
2022/07/29 15:20:57;;;;;;;2.00;1.58;;;33.10;45.40;;;;;;10045374;28;20029;-69
2022/07/29 15:25:47;;;;;;;4.38;2.15;;;33.10;45.60;;;;;;10032664;28;20037;-71
2022/07/29 15:30:41;;;;;;;4.68;1.90;;;33.40;46.00;;;;;;10048428;28;20134;-70
2022/07/29 15:35:35;;;;;;;2.47;1.70;;;34.80;45.40;;;;;;10046696;28;20057;-71
2022/07/29 15:40:25;;;;;;;2.72;2.03;;;35.60;45.60;;;;;;10038436;28;20148;-67
2022/07/29 15:45:16;;;;;;;3.23;1.40;;;36.60;44.80;;;;;;10043681;28;20172;-67
2022/07/29 15:50:11;;;;;;;3.97;2.10;;;36.70;44.50;;;;;;10042870;28;20055;-70
2022/07/29 15:55:02;;;;;;;2.97;1.92;;;37.80;43.80;;;;;;10034858;28;20484;-68
2022/07/29 15:59:53;;;;;;;3.72;2.03;;;37.20;43.70;;;;;;10038545;28;20034;-68
2022/07/29 16:04:44;;;;;;;;;;;37.90;43.20;;;;;;10029585;28;20080;-70
2022/07/29 16:09:34;;;;;;;;;;;39.30;41.90;;;;;;10037039;28;20468;-65
2022/07/29 16:14:25;;;;;;;5.07;2.03;;;40.50;40.90;;;;;;10038021;28;20394;-64
2022/07/29 16:19:16;;;;;;;5.20;2.27;;;37.80;42.50;;;;;;10048287;28;20033;-70
2022/07/29 16:24:06;;;;;;;3.38;2.00;;;35.90;44.10;;;;;;10040545;28;20029;-70
2022/07/29 16:28:58;;;;;;;3.87;1.93;;;37.60;43.00;;;;;;10052691;28;20049;-70
2022/07/29 16:33:49;;;;;;;3.42;1.67;;;39.30;41.30;;;;;;10050363;28;20418;-65
2022/07/29 16:38:40;;;;;;;6.78;1.70;;;37.10;42.20;;;;;;10047743;28;20116;-69
2022/07/29 16:43:31;;;;;;;2.25;1.77;;;34.70;43.80;;;;;;10035783;28;20020;-68
2022/07/29 16:48:22;;;;;;;3.03;1.50;;;33.40;44.60;;;;;;10038756;28;20108;-67
2022/07/29 16:53:12;;;;;;;2.95;2.50;;;32.30;45.40;;;;;;10041039;28;20597;-68
2022/07/29 16:58:03;;;;;;;4.55;2.20;;;32.30;45.20;;;;;;10051563;28;20029;-68
2022/07/29 17:02:54;;;;;;;3.17;2.30;;;32.30;45.20;;;;;;10040450;28;20168;-71
2022/07/29 17:07:44;;;;;;;3.00;1.95;;;32.50;45.10;;;;;;10056168;28;20214;-71
2022/07/29 17:12:37;;;;;;;4.05;2.10;;;32.40;45.30;;;;;;10039330;28;20111;-68
2022/07/29 17:17:27;;;;;;;1.95;1.67;;;34.50;44.10;;;;;;10047381;28;20029;-70
2022/07/29 17:22:18;;;;;;;2.90;1.80;;;37.90;41.70;;;;;;10061559;28;20308;-67
2022/07/29 17:27:09;;;;;;;2.47;1.70;;;39.20;40.60;;;;;;10069898;28;20081;-63
2022/07/29 17:32:00;;;;;;;3.08;1.90;;;39.60;40.60;;;;;;10055949;28;20330;-63
2022/07/29 17:36:51;;;;;;;4.05;2.00;;;36.90;42.80;;;;;;10055396;28;20104;-60
2022/07/29 17:41:43;;;;;;;9.63;1.92;;;34.60;44.60;;;;;;10058329;28;20029;-60
2022/07/29 17:46:34;;;;;;;2.60;1.73;;;32.70;45.90;;;;;;10053419;28;20043;-61
2022/07/29 17:51:26;;;;;;;4.88;1.80;;;31.60;47.40;;;;;;10054833;28;20345;-60
2022/07/29 17:56:16;;;;;;;5.43;2.42;;;31.00;47.30;;;;;;10071529;28;20222;-60
2022/07/29 18:01:08;;;;;;;3.55;1.80;;;30.90;47.30;;;;;;10064326;28;20041;-61
2022/07/29 18:05:58;;;;;;;3.28;2.00;;;30.80;47.50;;;;;;10076420;28;20025;-60
2022/07/29 18:10:50;;;;;;;5.68;1.98;;;30.50;47.80;;;;;;10062914;28;20025;-59
2022/07/29 18:15:42;;;;;;;1.88;1.48;;;30.30;47.90;;;;;;10067983;28;20113;-61
2022/07/29 18:20:33;;;;;;;1.65;1.55;;;30.10;48.10;;;;;;10079146;28;20379;-60
2022/07/29 18:25:24;;;;;;;4.50;1.95;;;29.80;48.30;;;;;;10052090;28;20021;-63
2022/07/29 18:30:15;;;;;;;2.30;1.85;;;29.70;48.40;;;;;;10069603;28;20048;-68
2022/07/29 18:35:06;;;;;;;4.43;2.47;;;29.40;48.60;;;;;;10069003;28;20451;-65
2022/07/29 18:39:57;;;;;;;2.40;1.70;;;29.20;48.80;;;;;;10054784;28;20080;-66
2022/07/29 18:44:48;;;;;;;6.60;1.92;;;29.00;49.10;;;;;;10065713;28;20115;-66
2022/07/29 18:49:39;;;;;;;3.03;1.70;;;28.80;49.40;;;;;;10063189;28;20036;-67
2022/07/29 18:54:30;;;;;;;4.07;2.13;;;28.70;49.40;;;;;;10065794;28;20034;-66
2022/07/29 18:59:20;;;;;;;2.70;1.60;;;28.70;49.50;;;;;;10058206;28;20158;-67
2022/07/29 19:04:11;;;;;;;2.20;1.60;;;28.70;49.40;;;;;;10054450;28;20026;-65
2022/07/29 19:09:02;;;;;;;3.47;1.40;;;28.50;49.70;;;;;;10064316;28;20029;-65
2022/07/29 19:13:53;;;;;;;2.47;2.05;;;28.30;49.90;;;;;;10055225;28;20050;-64
2022/07/29 19:18:46;;;;;;;1.92;1.40;;;28.30;50.20;;;;;;10079122;28;20018;-64
2022/07/29 19:23:36;;;;;;;2.60;1.80;;;28.10;50.20;;;;;;10060703;28;20491;-66
2022/07/29 19:28:27;;;;;;;4.00;2.10;;;28.10;50.30;;;;;;10068946;28;20054;-63
2022/07/29 19:33:19;;;;;;;3.83;1.70;;;28.20;50.30;;;;;;10064160;28;20371;-63
2022/07/29 19:38:09;;;;;;;3.10;1.65;;;28.20;50.40;;;;;;10064564;28;20045;-67
2022/07/29 19:43:00;;;;;;;3.13;1.70;;;28.00;50.60;;;;;;10056012;28;20037;-69
2022/07/29 19:47:52;;;;;;;2.28;1.73;;;28.10;50.50;;;;;;10061861;28;20076;-68
2022/07/29 19:52:45;;;;;;;5.05;2.10;;;27.90;50.70;;;;;;10069152;28;20013;-69
2022/07/29 19:57:36;;;;;;;3.22;1.88;;;27.90;50.90;;;;;;10066724;28;20037;-64
2022/07/29 20:02:27;;;;;;;4.43;1.67;;;27.90;50.90;;;;;;10078438;28;20108;-69
2022/07/29 20:07:17;;;;;;;3.13;1.88;;;27.80;51.10;;;;;;10069195;28;20217;-71
2022/07/29 20:12:10;;;;;;;3.20;1.80;;;27.80;51.40;;;;;;10085045;28;20059;-67
2022/07/29 20:17:01;;;;;;;5.15;2.47;;;27.80;51.70;;;;;;10055180;28;20109;-68
2022/07/29 20:21:53;;;;;;;3.20;2.08;;;27.70;51.90;;;;;;10063249;28;20117;-62
2022/07/29 20:26:44;;;;;;;5.50;2.42;;;27.60;52.00;;;;;;10061785;28;20450;-63
2022/07/29 20:31:44;;;;;;;4.70;2.25;;;27.50;52.30;;;;;;10056952;28;20032;-67
2022/07/29 20:36:35;;;;;;;2.53;1.70;;;27.60;52.50;;;;;;10048592;28;20587;-65
2022/07/29 20:41:27;;;;;;;6.10;2.28;;;27.30;52.80;;;;;;10046279;28;20044;-64
2022/07/29 20:46:18;;;;;;;5.25;2.58;;;27.20;53.00;;;;;;10052881;28;20017;-65
2022/07/29 20:51:09;;;;;;;3.75;2.25;;;27.10;53.20;;;;;;10061410;28;20025;-67
2022/07/29 20:55:59;;;;;;;4.80;2.00;;;27.00;53.30;;;;;;10057331;28;20030;-66
2022/07/29 21:00:50;;;;;;;5.05;1.92;;;26.80;53.60;;;;;;10048962;28;20098;-62
2022/07/29 21:05:42;;;;;;;4.43;2.72;;;26.70;53.90;;;;;;10054273;28;20033;-62
2022/07/29 21:10:33;;;;;;;4.97;2.70;;;26.80;54.00;;;;;;10053956;28;20118;-59
2022/07/29 21:15:25;;;;;;;4.93;2.50;;;26.80;54.10;;;;;;10053664;28;20132;-59
2022/07/29 21:20:17;;;;;;;6.82;2.03;;;26.70;54.10;;;;;;10058222;28;20033;-61
2022/07/29 21:25:09;;;;;;;5.03;1.98;;;26.90;54.10;;;;;;10057845;28;20033;-60
2022/07/29 21:30:00;;;;;;;4.65;2.20;;;26.90;53.80;;;;;;10032744;28;20061;-62
2022/07/29 21:34:51;;;;;;;7.70;2.00;;;26.90;53.80;;;;;;10043039;28;20364;-62
2022/07/29 21:39:43;;;;;;;5.20;2.20;;;26.80;53.80;;;;;;10055920;28;20438;-61
2022/07/29 21:44:37;;;;;;;4.45;2.20;;;26.90;53.40;;;;;;10048795;28;20522;-60
2022/07/29 21:49:27;;;;;;;2.37;2.17;;;26.90;53.40;;;;;;10054426;28;20080;-60
2022/07/29 21:54:18;;;;;;;5.53;2.72;;;26.90;53.20;;;;;;10048509;28;20467;-61
2022/07/29 21:59:09;;;;;;;5.13;3.03;;;26.80;53.40;;;;;;10041700;28;20033;-60
2022/07/29 22:04:00;;;;;;;2.78;2.28;;;26.70;53.40;;;;;;10036771;28;20426;-64
2022/07/29 22:08:50;;;;;;;6.38;2.55;;;26.50;53.50;;;;;;10059562;28;20049;-62
2022/07/29 22:13:41;;;;;;;2.30;1.98;;;26.70;53.40;;;;;;10039652;28;20041;-62
2022/07/29 22:18:32;;;;;;;4.45;2.50;;;26.60;53.40;;;;;;10053272;28;20081;-62
2022/07/29 22:23:23;;;;;;;5.65;2.47;;;26.60;53.50;;;;;;10062733;28;20030;-61
2022/07/29 22:28:13;;;;;;;3.10;2.40;;;26.50;53.70;;;;;;10046706;28;20038;-62
2022/07/29 22:33:04;;;;;;;3.33;2.40;;;26.10;54.30;;;;;;10037604;28;20017;-62
2022/07/29 22:37:54;;;;;;;8.88;2.55;;;26.10;54.50;;;;;;10030834;28;20030;-62
2022/07/29 22:42:45;;;;;;;4.72;2.72;;;26.10;54.60;;;;;;10037455;28;20108;-62
2022/07/29 22:47:37;;;;;;;5.07;2.40;;;25.90;54.90;;;;;;10039759;28;20380;-61
2022/07/29 22:52:27;;;;;;;2.90;2.60;;;25.80;55.10;;;;;;10040305;28;20034;-62
2022/07/29 22:57:18;;;;;;;4.57;2.53;;;25.70;55.40;;;;;;10030584;28;20504;-61
2022/07/29 23:02:09;;;;;;;4.75;2.63;;;25.80;55.60;;;;;;10034460;28;20057;-63
2022/07/29 23:06:59;;;;;;;3.45;2.58;;;25.90;55.40;;;;;;10042609;28;20098;-62
2022/07/29 23:11:50;;;;;;;6.57;3.35;;;25.80;55.90;;;;;;10043075;28;20423;-62
2022/07/29 23:16:41;;;;;;;3.40;2.75;;;25.60;56.10;;;;;;10058326;28;20099;-61
2022/07/29 23:21:31;;;;;;;4.45;2.72;;;25.40;56.60;;;;;;10060418;28;20037;-64
2022/07/29 23:26:22;;;;;;;4.90;2.33;;;25.50;56.50;;;;;;10058692;28;20142;-62
2022/07/29 23:31:13;;;;;;;5.90;3.00;;;25.40;56.90;;;;;;10047994;28;20029;-61
2022/07/29 23:36:03;;;;;;;3.03;2.38;;;25.40;57.10;;;;;;10061891;28;20126;-62
2022/07/29 23:40:54;;;;;;;3.80;2.03;;;25.30;57.20;;;;;;10048666;28;20033;-63
2022/07/29 23:45:45;;;;;;;6.68;2.80;;;25.40;57.30;;;;;;10068577;28;20029;-61
2022/07/29 23:50:35;;;;;;;5.40;2.60;;;25.10;57.80;;;;;;10065000;28;20061;-62
2022/07/29 23:55:26;;;;;;;5.95;2.53;;;25.10;57.90;;;;;;10056254;28;20026;-62
